createdAt,value
2023-10-08T00:01:43.925Z,99027.28
2023-10-08T00:03:51.089Z,99029.47
2023-10-08T00:05:54.308Z,99037.03
2023-10-08T00:07:57.328Z,99038.13
2023-10-08T00:10:03.478Z,99040.31
2023-10-08T00:12:06.869Z,99032.69
2023-10-08T00:14:18.816Z,99035.66
2023-10-08T00:16:23.638Z,99024.78
2023-10-08T00:18:27.161Z,99024.81
2023-10-08T00:20:36.736Z,99028.84
2023-10-08T00:22:40.178Z,99018.53
2023-10-08T00:24:43.157Z,99014.75
2023-10-08T00:26:47.680Z,99023.16
2023-10-08T00:28:53.322Z,99018.28
2023-10-08T00:30:56.639Z,99012.31
2023-10-08T00:32:59.772Z,99016.03
2023-10-08T00:35:02.925Z,99013.66
2023-10-08T00:37:10.424Z,99020.72
2023-10-08T00:39:24.303Z,99019.91
2023-10-08T00:41:32.556Z,99014.16
2023-10-08T00:43:37.601Z,99012.84
2023-10-08T00:45:45.167Z,99020.38
2023-10-08T00:47:48.793Z,99019.25
2023-10-08T00:50:04.616Z,99015.75
2023-10-08T00:52:10.024Z,99026.34
2023-10-08T00:54:18.886Z,99025.47
2023-10-08T00:56:21.932Z,99020.28
2023-10-08T00:58:28.869Z,99024.38
2023-10-08T01:00:39.217Z,99017.38
2023-10-08T01:02:50.329Z,99028.72
2023-10-08T01:04:53.624Z,99029.69
2023-10-08T01:07:03.020Z,99026.47
2023-10-08T01:09:18.924Z,99037.31
2023-10-08T01:11:34.910Z,99038.53
2023-10-08T01:13:44.330Z,99050.84
2023-10-08T01:15:51.564Z,99044.41
2023-10-08T01:18:06.156Z,99056.97
2023-10-08T01:20:22.291Z,99065.09
2023-10-08T01:22:30.026Z,99074.06
2023-10-08T01:24:38.247Z,99076.00
2023-10-08T01:26:42.111Z,99075.25
2023-10-08T01:28:45.313Z,99060.81
2023-10-08T01:30:48.849Z,99087.09
2023-10-08T01:32:53.884Z,99080.88
2023-10-08T01:34:57.708Z,99076.19
2023-10-08T01:37:04.641Z,99081.47
2023-10-08T01:39:12.611Z,99078.91
2023-10-08T01:41:21.712Z,99073.78
2023-10-08T01:43:24.633Z,99077.13
2023-10-08T01:45:27.785Z,99066.34
2023-10-08T01:47:31.954Z,99073.38
2023-10-08T01:49:35.119Z,99068.31
2023-10-08T01:51:38.916Z,99073.78
2023-10-08T01:53:42.867Z,99068.56
2023-10-08T01:55:50.509Z,99072.06
2023-10-08T01:57:53.784Z,99073.78
2023-10-08T01:59:56.694Z,99074.44
2023-10-08T02:02:00.496Z,99073.94
2023-10-08T02:04:03.614Z,99081.69
2023-10-08T02:06:10.039Z,99086.22
2023-10-08T02:08:13.970Z,99100.41
2023-10-08T02:10:17.197Z,99105.38
2023-10-08T02:12:21.531Z,99095.66
2023-10-08T02:14:24.913Z,99093.88
2023-10-08T02:16:29.187Z,99097.44
2023-10-08T02:18:32.517Z,99075.97
2023-10-08T02:20:35.797Z,99085.59
2023-10-08T02:22:39.745Z,99078.91
2023-10-08T02:24:44.493Z,99085.78
2023-10-08T02:26:47.522Z,99080.63
2023-10-08T02:28:52.415Z,99093.38
2023-10-08T02:30:56.263Z,99100.06
2023-10-08T02:33:00.041Z,99107.25
2023-10-08T02:35:03.071Z,99105.03
2023-10-08T02:37:06.507Z,99109.22
2023-10-08T02:39:17.934Z,99115.66
2023-10-08T02:41:20.815Z,99119.69
2023-10-08T02:43:24.673Z,99129.44
2023-10-08T02:45:29.702Z,99139.50
2023-10-08T02:47:33.517Z,99157.13
2023-10-08T02:49:38.035Z,99160.31
2023-10-08T02:51:42.503Z,99165.81
2023-10-08T02:53:45.624Z,99175.19
2023-10-08T02:55:48.767Z,99182.72
2023-10-08T02:57:52.381Z,99192.56
2023-10-08T02:59:55.924Z,99196.66
2023-10-08T03:02:01.280Z,99193.72
2023-10-08T03:04:11.336Z,99187.41
2023-10-08T03:06:16.291Z,99188.00
2023-10-08T03:08:23.600Z,99187.78
2023-10-08T03:10:33.686Z,99173.53
2023-10-08T03:12:37.558Z,99156.06
2023-10-08T03:14:51.352Z,99155.09
2023-10-08T03:16:59.677Z,99185.78
2023-10-08T03:19:07.380Z,99213.38
2023-10-08T03:21:25.424Z,99225.25
2023-10-08T03:23:35.958Z,99218.38
2023-10-08T03:25:43.020Z,99226.19
2023-10-08T03:27:46.241Z,99244.13
2023-10-08T03:29:49.637Z,99239.66
2023-10-08T03:31:53.118Z,99243.53
2023-10-08T03:33:57.778Z,99260.63
2023-10-08T03:36:10.307Z,99263.91
2023-10-08T03:38:45.914Z,99256.50
2023-10-08T03:40:51.338Z,99261.06
2023-10-08T03:42:57.382Z,99266.69
2023-10-08T03:45:11.188Z,99275.59
2023-10-08T03:47:14.435Z,99272.41
2023-10-08T03:49:23.695Z,99282.25
2023-10-08T03:51:29.149Z,99281.22
2023-10-08T03:53:35.403Z,99272.75
2023-10-08T03:55:41.948Z,99287.63
2023-10-08T03:57:45.987Z,99296.75
2023-10-08T03:59:50.319Z,99305.75
2023-10-08T04:01:56.345Z,99304.38
2023-10-08T04:03:59.893Z,99314.09
2023-10-08T04:06:16.335Z,99318.28
2023-10-08T04:08:44.122Z,99329.38
2023-10-08T04:10:47.309Z,99332.69
2023-10-08T04:12:52.209Z,99351.03
2023-10-08T04:14:57.412Z,99354.91
2023-10-08T04:17:00.643Z,99363.03
2023-10-08T04:19:04.914Z,99356.66
2023-10-08T04:21:14.242Z,99357.44
2023-10-08T04:23:22.706Z,99355.19
2023-10-08T04:25:27.389Z,99362.44
2023-10-08T04:27:32.132Z,99364.53
2023-10-08T04:29:38.189Z,99373.69
2023-10-08T04:31:45.418Z,99386.44
2023-10-08T04:33:48.900Z,99387.63
2023-10-08T04:35:57.928Z,99394.41
2023-10-08T04:38:00.859Z,99398.97
2023-10-08T04:40:04.272Z,99417.91
2023-10-08T04:42:15.557Z,99423.72
2023-10-08T04:44:18.715Z,99414.63
2023-10-08T04:46:35.496Z,99423.53
2023-10-08T04:48:38.480Z,99419.03
2023-10-08T04:50:45.939Z,99412.91
2023-10-08T04:52:59.705Z,99419.22
2023-10-08T04:55:14.364Z,99418.44
2023-10-08T04:57:19.649Z,99420.31
2023-10-08T04:59:24.121Z,99410.81
2023-10-08T05:01:39.826Z,99408.28
2023-10-08T05:03:56.053Z,99396.09
2023-10-08T05:06:07.680Z,99409.00
2023-10-08T05:08:30.259Z,99422.03
2023-10-08T05:10:46.151Z,99424.84
2023-10-08T05:13:22.778Z,99439.25
2023-10-08T05:15:35.019Z,99443.38
2023-10-08T05:17:58.011Z,99450.19
2023-10-08T05:20:10.257Z,99449.53
2023-10-08T05:22:23.146Z,99452.50
2023-10-08T05:24:39.366Z,99451.78
2023-10-08T05:26:50.847Z,99452.22
2023-10-08T05:29:24.135Z,99463.41
2023-10-08T05:31:48.535Z,99468.00
2023-10-08T05:34:10.538Z,99475.59
2023-10-08T05:36:19.876Z,99477.91
2023-10-08T05:38:24.789Z,99485.00
2023-10-08T05:40:51.337Z,99482.41
2023-10-08T05:43:02.698Z,99475.13
2023-10-08T05:45:12.121Z,99483.56
2023-10-08T05:47:34.008Z,99489.88
2023-10-08T05:49:37.248Z,99495.69
2023-10-08T05:51:48.123Z,99499.28
2023-10-08T05:53:57.548Z,99510.25
2023-10-08T05:56:18.175Z,99509.13
2023-10-08T05:58:21.189Z,99521.91
2023-10-08T06:00:47.999Z,99524.34
2023-10-08T06:03:11.274Z,99529.09
2023-10-08T06:05:14.938Z,99523.53
2023-10-08T06:07:34.526Z,99531.38
2023-10-08T06:09:39.192Z,99536.88
2023-10-08T06:11:45.191Z,99542.09
2023-10-08T06:13:56.863Z,99543.13
2023-10-08T06:16:01.347Z,99537.84
2023-10-08T06:18:09.608Z,99536.25
2023-10-08T06:20:17.963Z,99549.88
2023-10-08T06:22:25.249Z,99559.56
2023-10-08T06:24:28.290Z,99554.16
2023-10-08T06:26:35.602Z,99573.69
2023-10-08T06:28:39.709Z,99582.81
2023-10-08T06:30:45.729Z,99584.94
2023-10-08T06:32:52.152Z,99584.53
2023-10-08T06:34:57.908Z,99594.84
2023-10-08T06:37:03.075Z,99586.34
2023-10-08T06:39:13.403Z,99579.91
2023-10-08T06:41:31.295Z,99575.88
2023-10-08T06:43:45.198Z,99587.81
2023-10-08T06:45:48.484Z,99595.44
2023-10-08T06:47:52.896Z,99594.78
2023-10-08T06:49:56.008Z,99600.41
2023-10-08T06:51:58.887Z,99599.19
2023-10-08T06:54:04.514Z,99616.59
2023-10-08T06:56:08.144Z,99617.59
2023-10-08T06:58:12.839Z,99624.31
2023-10-08T07:00:36.323Z,99619.13
2023-10-08T07:02:41.219Z,99613.56
2023-10-08T07:04:49.351Z,99625.63
2023-10-08T07:06:52.877Z,99625.44
2023-10-08T07:08:56.863Z,99632.84
2023-10-08T07:11:02.668Z,99646.47
2023-10-08T07:13:09.327Z,99651.88
2023-10-08T07:15:14.214Z,99646.22
2023-10-08T07:17:21.910Z,99643.22
2023-10-08T07:19:34.189Z,99663.75
2023-10-08T07:21:46.411Z,99662.38
2023-10-08T07:23:58.634Z,99659.34
2023-10-08T07:26:15.007Z,99664.06
2023-10-08T07:28:20.985Z,99660.81
2023-10-08T07:30:33.993Z,99664.88
2023-10-08T07:32:40.001Z,99675.91
2023-10-08T07:34:45.809Z,99670.69
2023-10-08T07:36:52.227Z,99678.00
2023-10-08T07:38:55.746Z,99680.88
2023-10-08T07:40:58.790Z,99683.88
2023-10-08T07:43:10.165Z,99694.72
2023-10-08T07:45:19.174Z,99693.38
2023-10-08T07:47:22.928Z,99700.56
2023-10-08T07:49:32.427Z,99710.81
2023-10-08T07:51:35.866Z,99709.16
2023-10-08T07:53:40.336Z,99705.16
2023-10-08T07:55:43.270Z,99714.66
2023-10-08T07:57:46.416Z,99717.25
2023-10-08T07:59:56.480Z,99730.66
2023-10-08T08:02:01.679Z,99734.16
2023-10-08T08:04:05.184Z,99737.06
2023-10-08T08:06:08.993Z,99730.19
2023-10-08T08:08:19.030Z,99736.16
2023-10-08T08:10:25.090Z,99729.22
2023-10-08T08:12:30.044Z,99725.44
2023-10-08T08:14:33.197Z,99725.78
2023-10-08T08:16:38.469Z,99717.13
2023-10-08T08:18:41.561Z,99728.34
2023-10-08T08:20:45.403Z,99727.81
2023-10-08T08:22:52.180Z,99727.00
2023-10-08T08:25:17.232Z,99736.09
2023-10-08T08:27:33.639Z,99736.75
2023-10-08T08:29:45.900Z,99741.22
2023-10-08T08:31:49.020Z,99747.31
2023-10-08T08:33:55.241Z,99744.28
2023-10-08T08:36:07.022Z,99746.59
2023-10-08T08:38:10.509Z,99754.25
2023-10-08T08:40:18.865Z,99763.19
2023-10-08T08:42:24.789Z,99772.66
2023-10-08T08:44:33.103Z,99782.66
2023-10-08T08:46:39.040Z,99784.63
2023-10-08T08:48:43.168Z,99782.50
2023-10-08T08:50:48.294Z,99775.03
2023-10-08T08:52:53.363Z,99789.75
2023-10-08T08:54:56.909Z,99793.78
2023-10-08T08:57:05.457Z,99800.38
2023-10-08T08:59:13.312Z,99801.09
2023-10-08T09:01:19.013Z,99815.78
2023-10-08T09:03:22.061Z,99818.00
2023-10-08T09:05:28.974Z,99828.00
2023-10-08T09:07:32.076Z,99824.84
2023-10-08T09:09:36.482Z,99827.88
2023-10-08T09:11:42.715Z,99830.19
2023-10-08T09:13:45.850Z,99827.34
2023-10-08T09:15:50.338Z,99829.69
2023-10-08T09:17:53.748Z,99831.13
2023-10-08T09:19:56.748Z,99830.94
2023-10-08T09:22:07.807Z,99832.25
2023-10-08T09:24:13.072Z,99829.47
2023-10-08T09:26:18.191Z,99837.34
2023-10-08T09:28:23.067Z,99842.53
2023-10-08T09:30:27.481Z,99843.94
2023-10-08T09:32:32.343Z,99838.34
2023-10-08T09:34:35.605Z,99841.47
2023-10-08T09:36:38.811Z,99838.25
2023-10-08T09:38:41.958Z,99841.66
2023-10-08T09:40:47.829Z,99842.19
2023-10-08T09:42:51.887Z,99849.69
2023-10-08T09:44:55.917Z,99845.34
2023-10-08T09:47:05.840Z,99851.44
2023-10-08T09:49:14.248Z,99864.66
2023-10-08T09:51:17.572Z,99858.59
2023-10-08T09:53:27.971Z,99857.22
2023-10-08T09:55:31.118Z,99866.28
2023-10-08T09:57:34.802Z,99873.09
2023-10-08T09:59:42.555Z,99877.69
2023-10-08T10:01:46.306Z,99881.22
2023-10-08T10:03:50.897Z,99885.69
2023-10-08T10:06:00.183Z,99883.84
2023-10-08T10:08:11.615Z,99891.50
2023-10-08T10:10:33.324Z,99899.47
2023-10-08T10:12:37.799Z,99898.56
2023-10-08T10:14:44.975Z,99899.41
2023-10-08T10:16:50.293Z,99897.59
2023-10-08T10:19:01.043Z,99899.56
2023-10-08T10:21:30.648Z,99898.50
2023-10-08T10:23:38.376Z,99914.59
2023-10-08T10:25:45.437Z,99916.16
2023-10-08T10:28:22.376Z,99918.75
2023-10-08T10:30:25.354Z,99925.81
2023-10-08T10:32:28.407Z,99919.50
2023-10-08T10:34:31.921Z,99925.78
2023-10-08T10:36:36.429Z,99926.34
2023-10-08T10:38:39.535Z,99927.88
2023-10-08T10:40:42.577Z,99922.78
2023-10-08T10:42:55.089Z,99917.91
2023-10-08T10:45:00.290Z,99921.59
2023-10-08T10:47:18.069Z,99922.59
2023-10-08T10:49:25.645Z,99927.44
2023-10-08T10:51:30.766Z,99930.97
2023-10-08T10:53:46.271Z,99930.38
2023-10-08T10:56:05.899Z,99941.22
2023-10-08T10:58:17.255Z,99941.28
2023-10-08T11:00:40.293Z,99942.81
2023-10-08T11:02:50.341Z,99947.81
2023-10-08T11:04:53.564Z,99947.41
2023-10-08T11:07:02.325Z,99943.88
2023-10-08T11:09:07.158Z,99945.22
2023-10-08T11:11:12.002Z,99946.44
2023-10-08T11:13:18.529Z,99943.19
2023-10-08T11:15:24.921Z,99947.38
2023-10-08T11:17:29.828Z,99933.69
2023-10-08T11:19:33.868Z,99953.34
2023-10-08T11:21:50.223Z,99946.88
2023-10-08T11:23:55.126Z,99941.72
2023-10-08T11:26:04.571Z,99947.38
2023-10-08T11:28:13.185Z,99951.66
2023-10-08T11:30:19.088Z,99957.31
2023-10-08T11:32:27.332Z,99953.50
2023-10-08T11:34:40.763Z,99952.59
2023-10-08T11:37:01.670Z,99956.50
2023-10-08T11:39:13.079Z,99955.38
2023-10-08T11:41:22.405Z,99959.38
2023-10-08T11:43:26.404Z,99948.28
2023-10-08T11:45:39.342Z,99940.25
2023-10-08T11:47:43.839Z,99945.47
2023-10-08T11:49:52.423Z,99942.03
2023-10-08T11:51:57.081Z,99954.19
2023-10-08T11:54:01.587Z,99944.31
2023-10-08T11:56:11.067Z,99936.25
2023-10-08T11:58:19.102Z,99945.44
2023-10-08T12:00:32.512Z,99947.91
2023-10-08T12:02:36.318Z,99944.34
2023-10-08T12:04:40.409Z,99952.53
2023-10-08T12:06:53.475Z,99957.03
2023-10-08T12:09:00.210Z,99959.78
2023-10-08T12:11:03.364Z,99956.22
2023-10-08T12:13:07.341Z,99964.22
2023-10-08T12:15:12.396Z,99967.72
2023-10-08T12:17:15.285Z,99966.13
2023-10-08T12:19:18.265Z,99964.66
2023-10-08T12:21:21.804Z,99971.50
2023-10-08T12:23:27.574Z,99966.09
2023-10-08T12:25:30.914Z,99969.47
2023-10-08T12:27:34.144Z,99970.22
2023-10-08T12:29:37.116Z,99971.28
2023-10-08T12:31:41.786Z,99975.88
2023-10-08T12:33:45.233Z,99971.97
2023-10-08T12:35:51.426Z,99976.31
2023-10-08T12:37:55.537Z,99970.13
2023-10-08T12:40:12.699Z,99981.72
2023-10-08T12:42:15.732Z,99976.47
2023-10-08T12:44:18.699Z,99981.94
2023-10-08T12:46:26.253Z,99980.69
2023-10-08T12:48:30.679Z,99987.81
2023-10-08T12:50:45.708Z,99980.88
2023-10-08T12:52:56.584Z,99985.88
2023-10-08T12:55:05.053Z,99985.69
2023-10-08T12:57:10.641Z,99991.28
2023-10-08T12:59:23.199Z,99984.50
2023-10-08T13:01:30.417Z,99985.78
2023-10-08T13:03:37.250Z,99993.09
2023-10-08T13:05:40.260Z,99986.06
2023-10-08T13:07:44.471Z,99988.97
2023-10-08T13:09:47.388Z,99995.41
2023-10-08T13:11:51.592Z,99996.38
2023-10-08T13:13:59.387Z,99991.91
2023-10-08T13:16:08.582Z,100002.63
2023-10-08T13:18:11.799Z,99996.88
2023-10-08T13:20:18.836Z,100008.63
2023-10-08T13:22:21.802Z,100004.78
2023-10-08T13:24:26.809Z,100006.13
2023-10-08T13:26:32.729Z,100002.97
2023-10-08T13:28:36.239Z,100007.50
2023-10-08T13:30:39.806Z,100007.78
2023-10-08T13:32:44.287Z,100003.56
2023-10-08T13:34:47.674Z,100011.34
2023-10-08T13:36:52.151Z,99998.66
2023-10-08T13:38:56.730Z,100008.63
2023-10-08T13:41:07.976Z,100011.00
2023-10-08T13:43:13.285Z,100014.38
2023-10-08T13:45:27.683Z,100010.44
2023-10-08T13:47:35.181Z,100010.16
2023-10-08T13:49:42.521Z,100011.34
2023-10-08T13:51:51.343Z,100013.47
2023-10-08T13:54:04.634Z,100020.75
2023-10-08T13:56:07.729Z,100013.22
2023-10-08T13:58:10.695Z,100018.72
2023-10-08T14:00:17.296Z,100021.34
2023-10-08T14:02:23.005Z,100015.81
2023-10-08T14:04:32.288Z,100023.06
2023-10-08T14:06:36.125Z,100012.50
2023-10-08T14:08:40.600Z,100027.81
2023-10-08T14:10:45.297Z,100037.44
2023-10-08T14:12:50.698Z,100038.34
2023-10-08T14:14:53.905Z,100034.03
2023-10-08T14:17:01.293Z,100025.91
2023-10-08T14:19:06.755Z,100027.63
2023-10-08T14:21:12.849Z,100035.63
2023-10-08T14:23:18.041Z,100039.63
2023-10-08T14:25:25.675Z,100035.41
2023-10-08T14:27:33.892Z,100040.81
2023-10-08T14:29:37.355Z,100047.28
2023-10-08T14:31:40.449Z,100051.28
2023-10-08T14:33:45.242Z,100059.81
2023-10-08T14:36:06.914Z,100062.44
2023-10-08T14:38:29.026Z,100059.19
2023-10-08T14:40:50.900Z,100061.41
2023-10-08T14:43:03.588Z,100060.03
2023-10-08T14:45:12.571Z,100053.81
2023-10-08T14:47:16.779Z,100057.31
2023-10-08T14:49:20.097Z,100059.50
2023-10-08T14:51:25.885Z,100046.94
2023-10-08T14:53:29.768Z,100054.25
2023-10-08T14:55:35.528Z,100061.97
2023-10-08T14:57:38.656Z,100069.97
2023-10-08T14:59:43.278Z,100075.91
2023-10-08T15:01:48.581Z,100068.31
2023-10-08T15:03:51.747Z,100084.25
2023-10-08T15:05:54.937Z,100081.00
2023-10-08T15:07:57.853Z,100092.53
2023-10-08T15:10:02.013Z,100092.88
2023-10-08T15:12:05.732Z,100096.66
2023-10-08T15:14:11.127Z,100108.13
2023-10-08T15:16:15.612Z,100096.81
2023-10-08T15:18:20.190Z,100102.00
2023-10-08T15:20:25.410Z,100118.03
2023-10-08T15:22:28.479Z,100108.13
2023-10-08T15:24:31.451Z,100107.34
2023-10-08T15:26:35.037Z,100106.38
2023-10-08T15:28:38.138Z,100108.75
2023-10-08T15:30:42.537Z,100098.69
2023-10-08T15:32:49.048Z,100097.69
2023-10-08T15:34:52.124Z,100089.13
2023-10-08T15:36:55.174Z,100097.91
2023-10-08T15:38:58.320Z,100101.59
2023-10-08T15:41:01.845Z,100107.28
2023-10-08T15:43:05.659Z,100105.78
2023-10-08T15:45:09.667Z,100106.91
2023-10-08T15:47:12.933Z,100110.38
2023-10-08T15:49:17.400Z,100111.03
2023-10-08T15:51:20.528Z,100115.28
2023-10-08T15:53:23.606Z,100106.25
2023-10-08T15:55:27.374Z,100113.47
2023-10-08T15:57:30.428Z,100116.75
2023-10-08T15:59:33.348Z,100119.91
2023-10-08T16:01:36.257Z,100107.69
2023-10-08T16:03:39.696Z,100111.16
2023-10-08T16:05:44.440Z,100108.06
2023-10-08T16:07:47.819Z,100109.41
2023-10-08T16:09:50.805Z,100116.69
2023-10-08T16:11:53.879Z,100122.06
2023-10-08T16:13:56.836Z,100119.38
2023-10-08T16:16:02.684Z,100128.31
2023-10-08T16:18:05.984Z,100136.50
2023-10-08T16:20:16.712Z,100147.44
2023-10-08T16:22:21.351Z,100145.19
2023-10-08T16:24:25.132Z,100151.81
2023-10-08T16:26:28.111Z,100165.63
2023-10-08T16:28:32.247Z,100167.97
2023-10-08T16:30:35.332Z,100173.97
2023-10-08T16:32:39.187Z,100164.69
2023-10-08T16:34:42.111Z,100165.72
2023-10-08T16:36:46.721Z,100172.94
2023-10-08T16:38:54.995Z,100170.66
2023-10-08T16:40:57.968Z,100175.84
2023-10-08T16:43:00.937Z,100175.44
2023-10-08T16:45:06.358Z,100196.75
2023-10-08T16:47:12.374Z,100188.47
2023-10-08T16:49:15.516Z,100198.84
2023-10-08T16:51:18.669Z,100191.41
2023-10-08T16:53:22.761Z,100194.28
2023-10-08T16:55:27.276Z,100203.81
2023-10-08T16:57:30.329Z,100203.81
2023-10-08T16:59:33.284Z,100199.47
2023-10-08T17:01:37.160Z,100203.00
2023-10-08T17:03:40.295Z,100216.84
2023-10-08T17:05:43.611Z,100209.41
2023-10-08T17:07:47.142Z,100208.75
2023-10-08T17:09:53.072Z,100213.09
2023-10-08T17:11:57.724Z,100216.81
2023-10-08T17:14:00.694Z,100210.13
2023-10-08T17:16:06.814Z,100210.75
2023-10-08T17:18:12.523Z,100220.06
2023-10-08T17:20:18.701Z,100221.50
2023-10-08T17:22:21.888Z,100217.16
2023-10-08T17:24:24.816Z,100217.16
2023-10-08T17:26:27.946Z,100234.31
2023-10-08T17:28:32.227Z,100226.03
2023-10-08T17:30:36.191Z,100225.59
2023-10-08T17:32:39.263Z,100226.22
2023-10-08T17:34:42.265Z,100228.28
2023-10-08T17:36:49.438Z,100233.63
2023-10-08T17:38:52.506Z,100229.09
2023-10-08T17:40:55.818Z,100238.59
2023-10-08T17:42:59.776Z,100242.28
2023-10-08T17:45:04.559Z,100244.78
2023-10-08T17:47:07.792Z,100235.03
2023-10-08T17:49:10.883Z,100244.13
2023-10-08T17:51:17.051Z,100244.97
2023-10-08T17:53:23.448Z,100247.25
2023-10-08T17:55:26.521Z,100238.88
2023-10-08T17:57:31.295Z,100236.16
2023-10-08T17:59:34.391Z,100240.06
2023-10-08T18:01:43.686Z,100258.41
2023-10-08T18:03:48.933Z,100250.09
2023-10-08T18:05:55.226Z,100248.19
2023-10-08T18:07:58.900Z,100256.66
2023-10-08T18:10:01.799Z,100264.03
2023-10-08T18:12:05.473Z,100251.66
2023-10-08T18:14:11.691Z,100261.47
2023-10-08T18:16:17.880Z,100263.16
2023-10-08T18:18:27.062Z,100267.66
2023-10-08T18:20:37.219Z,100270.31
2023-10-08T18:22:41.029Z,100269.34
2023-10-08T18:24:44.070Z,100267.38
2023-10-08T18:26:49.540Z,100263.59
2023-10-08T18:28:55.780Z,100264.63
2023-10-08T18:30:59.608Z,100264.56
2023-10-08T18:33:03.677Z,100259.78
2023-10-08T18:35:12.647Z,100264.06
2023-10-08T18:37:15.730Z,100271.66
2023-10-08T18:39:19.887Z,100268.09
2023-10-08T18:41:25.096Z,100263.88
2023-10-08T18:43:30.577Z,100270.81
2023-10-08T18:45:33.348Z,100267.47
2023-10-08T18:47:36.502Z,100260.38
2023-10-08T18:49:39.760Z,100267.34
2023-10-08T18:51:44.636Z,100269.03
2023-10-08T18:53:51.792Z,100253.50
2023-10-08T18:56:06.557Z,100258.22
2023-10-08T18:58:09.706Z,100260.78
2023-10-08T19:00:15.209Z,100257.47
2023-10-08T19:02:18.458Z,100257.31
2023-10-08T19:04:21.759Z,100253.53
2023-10-08T19:06:25.389Z,100248.19
2023-10-08T19:08:30.481Z,100255.00
2023-10-08T19:10:33.580Z,100259.53
2023-10-08T19:12:38.067Z,100260.09
2023-10-08T19:14:41.144Z,100263.22
2023-10-08T19:16:48.820Z,100258.31
2023-10-08T19:18:51.828Z,100261.59
2023-10-08T19:20:55.212Z,100253.53
2023-10-08T19:22:59.531Z,100269.81
2023-10-08T19:25:05.297Z,100269.81
2023-10-08T19:27:08.275Z,100265.09
2023-10-08T19:29:11.498Z,100268.78
2023-10-08T19:31:16.369Z,100261.38
2023-10-08T19:33:21.043Z,100270.72
2023-10-08T19:35:26.316Z,100271.06
2023-10-08T19:37:29.328Z,100275.72
2023-10-08T19:39:32.350Z,100276.81
2023-10-08T19:41:36.761Z,100273.75
2023-10-08T19:43:39.758Z,100276.63
2023-10-08T19:45:47.916Z,100278.28
2023-10-08T19:47:52.476Z,100289.19
2023-10-08T19:49:55.486Z,100280.69
2023-10-08T19:51:58.938Z,100281.91
2023-10-08T19:54:01.849Z,100278.84
2023-10-08T19:56:06.682Z,100283.75
2023-10-08T19:58:12.617Z,100268.69
2023-10-08T20:00:16.010Z,100265.84
2023-10-08T20:02:19.390Z,100271.44
2023-10-08T20:04:22.642Z,100275.63
2023-10-08T20:06:26.834Z,100273.94
2023-10-08T20:08:29.831Z,100276.63
2023-10-08T20:10:32.766Z,100265.00
2023-10-08T20:12:35.858Z,100275.97
2023-10-08T20:14:40.192Z,100282.91
2023-10-08T20:16:43.920Z,100275.50
2023-10-08T20:18:47.430Z,100286.69
2023-10-08T20:20:51.812Z,100271.25
2023-10-08T20:22:56.722Z,100273.72
2023-10-08T20:24:59.869Z,100276.97
2023-10-08T20:27:02.829Z,100279.47
2023-10-08T20:29:05.908Z,100273.09
2023-10-08T20:31:14.402Z,100277.41
2023-10-08T20:33:17.928Z,100274.47
2023-10-08T20:35:22.000Z,100269.78
2023-10-08T20:37:26.582Z,100268.75
2023-10-08T20:39:30.960Z,100271.53
2023-10-08T20:41:36.567Z,100269.50
2023-10-08T20:43:39.282Z,100269.97
2023-10-08T20:45:42.696Z,100271.25
2023-10-08T20:47:47.837Z,100270.84
2023-10-08T20:49:51.394Z,100260.97
2023-10-08T20:51:54.290Z,100267.34
2023-10-08T20:53:57.847Z,100260.34
2023-10-08T20:56:01.098Z,100260.72
2023-10-08T20:58:05.318Z,100259.50
2023-10-08T21:00:10.615Z,100269.22
2023-10-08T21:02:13.330Z,100271.69
2023-10-08T21:04:18.555Z,100265.06
2023-10-08T21:06:21.875Z,100258.81
2023-10-08T21:08:26.656Z,100262.53
2023-10-08T21:10:32.053Z,100269.34
2023-10-08T21:12:36.968Z,100257.72
2023-10-08T21:14:40.130Z,100254.03
2023-10-08T21:16:42.979Z,100255.59
2023-10-08T21:18:46.115Z,100262.88
2023-10-08T21:20:51.024Z,100260.13
2023-10-08T21:22:54.777Z,100268.16
2023-10-08T21:24:57.708Z,100261.88
2023-10-08T21:27:00.776Z,100266.75
2023-10-08T21:29:05.288Z,100256.31
2023-10-08T21:31:09.670Z,100254.19
2023-10-08T21:33:12.845Z,100266.19
2023-10-08T21:35:20.120Z,100254.09
2023-10-08T21:37:24.687Z,100251.25
2023-10-08T21:39:31.271Z,100244.59
2023-10-08T21:41:34.352Z,100254.53
2023-10-08T21:43:40.181Z,100248.91
2023-10-08T21:45:44.362Z,100246.22
2023-10-08T21:47:48.668Z,100245.66
2023-10-08T21:49:52.038Z,100246.69
2023-10-08T21:51:55.226Z,100248.69
2023-10-08T21:54:00.734Z,100253.03
2023-10-08T21:56:07.031Z,100259.41
2023-10-08T21:58:10.367Z,100247.09
2023-10-08T22:00:25.707Z,100254.13
2023-10-08T22:02:45.756Z,100247.28
2023-10-08T22:04:49.016Z,100243.91
2023-10-08T22:06:51.797Z,100235.06
2023-10-08T22:08:55.500Z,100235.50
2023-10-08T22:10:59.941Z,100236.16
2023-10-08T22:13:10.440Z,100231.78
2023-10-08T22:15:18.106Z,100228.47
2023-10-08T22:17:28.102Z,100223.50
2023-10-08T22:19:44.092Z,100220.00
2023-10-08T22:21:48.227Z,100221.41
2023-10-08T22:23:53.894Z,100230.50
2023-10-08T22:25:57.013Z,100225.34
2023-10-08T22:28:02.018Z,100219.81
2023-10-08T22:30:07.510Z,100208.78
2023-10-08T22:32:10.089Z,100220.00
2023-10-08T22:34:18.890Z,100211.50
2023-10-08T22:36:21.836Z,100210.31
2023-10-08T22:38:25.912Z,100208.03
2023-10-08T22:40:48.886Z,100206.06
2023-10-08T22:42:52.034Z,100197.84
2023-10-08T22:44:56.937Z,100198.50
2023-10-08T22:47:08.860Z,100209.91
2023-10-08T22:49:21.966Z,100206.63
2023-10-08T22:51:28.270Z,100208.75
2023-10-08T22:53:32.217Z,100202.47
2023-10-08T22:55:39.424Z,100214.66
2023-10-08T22:57:42.321Z,100220.00
2023-10-08T22:59:46.690Z,100220.34
2023-10-08T23:01:54.599Z,100213.53
2023-10-08T23:03:58.020Z,100220.06
2023-10-08T23:06:02.424Z,100218.38
2023-10-08T23:08:07.572Z,100225.72
2023-10-08T23:10:12.915Z,100228.91
2023-10-08T23:12:19.470Z,100235.78
2023-10-08T23:14:22.546Z,100230.78
2023-10-08T23:16:25.717Z,100241.97
2023-10-08T23:18:31.764Z,100229.50
2023-10-08T23:20:35.330Z,100232.72
2023-10-08T23:22:38.506Z,100224.38
2023-10-08T23:24:44.219Z,100213.88
2023-10-08T23:26:47.228Z,100218.75
2023-10-08T23:28:50.639Z,100229.41
2023-10-08T23:30:53.629Z,100232.75
2023-10-08T23:32:57.593Z,100226.47
2023-10-08T23:35:02.068Z,100216.31
2023-10-08T23:37:23.163Z,100209.00
2023-10-08T23:39:37.343Z,100213.47
2023-10-08T23:41:51.356Z,100207.34
2023-10-08T23:43:57.150Z,100194.31
2023-10-08T23:46:01.971Z,100191.84
2023-10-08T23:48:21.139Z,100196.16
2023-10-08T23:50:31.528Z,100194.34
2023-10-08T23:52:34.511Z,100197.00
2023-10-08T23:54:44.943Z,100199.19
2023-10-08T23:56:50.338Z,100193.00
2023-10-08T23:58:53.614Z,100189.38
